DLH712 EDDF-RKSI
Flight info
| Callsign | DLH712 |
|---|---|
| Flight time | N/A |
| Altitude | 31000 |
| Route | SULUS7S SULUS Z650 VEMUT/N0482F350 DCT PEPIK DCT BUDOP/N0480F370 DCT DINRO N743 UDROS UM859 KARDE UN644 ROLIN DCT TAGAR DCT BT DCT BARAD M747 SUBUT T916 BALUN/K0898F370 T916 ARNUS/K0902F390 T916 PIGAL M610 RULAD/K0885S1190 A343 POSOT B215 FKG W188 LIKMI/K0889S1250 W270 DKO W69 HUR B339 LADIX W34 VAPGU W100 ORAVA W201 UNSEK A326 DONVO G597 AGAVO/N0454F290 Y644 REBIT REBIT2H |
| Aircraft | A359/H-SADE2E3GHIJ1J2J3J4J5M1P2RWXYZ/LB1D1 |
Departure
| Time | N/A |
|---|---|
| Airport | Frankfurt Main Airport (EDDF) |
Arrival
| Time | 2026-05-07 08:36 |
|---|---|
| Airport | Incheon International Airport (RKSI) |
| Time | Latitude | Longitude | Altitude | Speed | Heading |
|---|---|---|---|---|---|
| 2026-05-07 05:23 | 43.73479 | 92.64357 | 39111 ft | 497 kts | 109° |
| 2026-05-07 05:23 | 43.71227 | 92.73412 | 39279 ft | 496 kts | 110° |
| 2026-05-07 05:23 | 43.70105 | 92.77910 | 39480 ft | 495 kts | 110° |
| 2026-05-07 05:24 | 43.68979 | 92.82414 | 39605 ft | 496 kts | 110° |
| 2026-05-07 05:24 | 43.67851 | 92.86916 | 39725 ft | 496 kts | 110° |
| 2026-05-07 05:24 | 43.66720 | 92.91423 | 39845 ft | 497 kts | 110° |
| 2026-05-07 05:24 | 43.65587 | 92.95931 | 39966 ft | 497 kts | 110° |
| 2026-05-07 05:25 | 43.64466 | 93.00391 | 40086 ft | 497 kts | 109° |
| 2026-05-07 05:25 | 43.63360 | 93.04924 | 40191 ft | 498 kts | 109° |
| 2026-05-07 05:25 | 43.62274 | 93.09481 | 40324 ft | 499 kts | 109° |
| 2026-05-07 05:26 | 43.60115 | 93.18604 | 40519 ft | 500 kts | 109° |
| 2026-05-07 05:26 | 43.59028 | 93.23171 | 40643 ft | 500 kts | 109° |
| 2026-05-07 05:26 | 43.57952 | 93.27666 | 40729 ft | 501 kts | 109° |
| 2026-05-07 05:27 | 43.55753 | 93.36788 | 40924 ft | 501 kts | 109° |
| 2026-05-07 05:27 | 43.53537 | 93.45927 | 41098 ft | 502 kts | 109° |
| 2026-05-07 05:28 | 43.51311 | 93.55064 | 41162 ft | 504 kts | 109° |
| 2026-05-07 05:28 | 43.49073 | 93.64222 | 41161 ft | 504 kts | 109° |
| 2026-05-07 05:29 | 43.46843 | 93.73309 | 41155 ft | 504 kts | 109° |
| 2026-05-07 05:29 | 43.44590 | 93.82457 | 41163 ft | 504 kts | 109° |
| 2026-05-07 05:30 | 43.42327 | 93.91608 | 41160 ft | 505 kts | 109° |
| 2026-05-07 05:30 | 43.40057 | 94.00750 | 41171 ft | 505 kts | 109° |
| 2026-05-07 05:31 | 43.37788 | 94.09849 | 41161 ft | 505 kts | 110° |
| 2026-05-07 05:31 | 43.35505 | 94.18972 | 41160 ft | 505 kts | 110° |
| 2026-05-07 05:32 | 43.33208 | 94.28112 | 41164 ft | 506 kts | 110° |
| 2026-05-07 05:32 | 43.30897 | 94.37275 | 41165 ft | 507 kts | 110° |
| 2026-05-07 05:33 | 43.28593 | 94.46373 | 41155 ft | 507 kts | 110° |
| 2026-05-07 05:33 | 43.26267 | 94.55522 | 41153 ft | 507 kts | 110° |
| 2026-05-07 05:34 | 43.24330 | 94.63116 | 41143 ft | 507 kts | 110° |
| 2026-05-07 05:34 | 43.21606 | 94.73752 | 41121 ft | 508 kts | 110° |
| 2026-05-07 05:35 | 43.19638 | 94.81407 | 41117 ft | 508 kts | 110° |
| 2026-05-07 05:35 | 43.17296 | 94.90484 | 41088 ft | 508 kts | 110° |
| 2026-05-07 05:36 | 43.14921 | 94.99603 | 41095 ft | 508 kts | 112° |
| 2026-05-07 05:36 | 43.11502 | 95.08017 | 41078 ft | 505 kts | 130° |
| 2026-05-07 05:37 | 43.06400 | 95.14496 | 41083 ft | 500 kts | 146° |
| 2026-05-07 05:37 | 43.00692 | 95.19927 | 41060 ft | 500 kts | 148° |
| 2026-05-07 05:38 | 42.94939 | 95.25165 | 41058 ft | 500 kts | 148° |
| 2026-05-07 05:38 | 42.89165 | 95.30452 | 41057 ft | 500 kts | 148° |
| 2026-05-07 05:39 | 42.83398 | 95.35774 | 41049 ft | 500 kts | 148° |
| 2026-05-07 05:39 | 42.77628 | 95.41107 | 41058 ft | 501 kts | 148° |
| 2026-05-07 05:40 | 42.71859 | 95.46427 | 41055 ft | 501 kts | 148° |
| 2026-05-07 05:40 | 42.66082 | 95.51741 | 41045 ft | 501 kts | 148° |
| 2026-05-07 05:41 | 42.60299 | 95.57047 | 41054 ft | 501 kts | 149° |
| 2026-05-07 05:41 | 42.54524 | 95.62332 | 41056 ft | 501 kts | 149° |
| 2026-05-07 05:42 | 42.48748 | 95.67608 | 41060 ft | 501 kts | 149° |
| 2026-05-07 05:42 | 42.43439 | 95.73775 | 41068 ft | 507 kts | 133° |
| 2026-05-07 05:43 | 42.39791 | 95.81884 | 41064 ft | 513 kts | 112° |
| 2026-05-07 05:43 | 42.38795 | 95.86519 | 41065 ft | 514 kts | 101° |
| 2026-05-07 05:43 | 42.38374 | 95.91329 | 41066 ft | 515 kts | 94° |
| 2026-05-07 05:44 | 42.38056 | 96.01026 | 41068 ft | 517 kts | 92° |
| 2026-05-07 05:44 | 42.37866 | 96.10745 | 41067 ft | 517 kts | 92° |
| 2026-05-07 05:45 | 42.37631 | 96.20485 | 41072 ft | 519 kts | 92° |
| 2026-05-07 05:45 | 42.37352 | 96.30185 | 41073 ft | 519 kts | 92° |
| 2026-05-07 05:46 | 42.37051 | 96.39932 | 41070 ft | 519 kts | 92° |
| 2026-05-07 05:46 | 42.36741 | 96.49681 | 41074 ft | 519 kts | 92° |
| 2026-05-07 05:47 | 42.36425 | 96.59442 | 41064 ft | 520 kts | 93° |
| 2026-05-07 05:47 | 42.36101 | 96.69200 | 41064 ft | 520 kts | 93° |
| 2026-05-07 05:48 | 42.35768 | 96.78973 | 41061 ft | 520 kts | 93° |
| 2026-05-07 05:48 | 42.35429 | 96.88691 | 41056 ft | 520 kts | 93° |
| 2026-05-07 05:49 | 42.35079 | 96.98492 | 41056 ft | 522 kts | 93° |
| 2026-05-07 05:49 | 42.34718 | 97.08352 | 41052 ft | 527 kts | 93° |
| 2026-05-07 05:50 | 42.34346 | 97.18282 | 41050 ft | 530 kts | 93° |
| 2026-05-07 05:50 | 42.33964 | 97.28247 | 41050 ft | 532 kts | 93° |
| 2026-05-07 05:51 | 42.33574 | 97.38185 | 41045 ft | 533 kts | 93° |
| 2026-05-07 05:51 | 42.33171 | 97.48267 | 41044 ft | 534 kts | 93° |
| 2026-05-07 05:52 | 42.32760 | 97.58288 | 41050 ft | 534 kts | 93° |
| 2026-05-07 05:52 | 42.32343 | 97.68251 | 41045 ft | 535 kts | 94° |
| 2026-05-07 05:53 | 42.31914 | 97.78306 | 41045 ft | 536 kts | 94° |
| 2026-05-07 05:53 | 42.31476 | 97.88364 | 41045 ft | 536 kts | 94° |
| 2026-05-07 05:54 | 42.31028 | 97.98427 | 41047 ft | 536 kts | 94° |
| 2026-05-07 05:54 | 42.30571 | 98.08512 | 41046 ft | 537 kts | 94° |
| 2026-05-07 05:55 | 42.30108 | 98.18511 | 41044 ft | 537 kts | 94° |
| 2026-05-07 05:55 | 42.29634 | 98.28596 | 41042 ft | 537 kts | 94° |
| 2026-05-07 05:56 | 42.29143 | 98.38671 | 41040 ft | 538 kts | 94° |
| 2026-05-07 05:56 | 42.28621 | 98.48757 | 41039 ft | 538 kts | 94° |
| 2026-05-07 05:57 | 42.28089 | 98.58843 | 41040 ft | 539 kts | 94° |
| 2026-05-07 05:57 | 42.27551 | 98.68936 | 41034 ft | 539 kts | 94° |
| 2026-05-07 05:58 | 42.27009 | 98.78965 | 41031 ft | 539 kts | 94° |
| 2026-05-07 05:58 | 42.26454 | 98.89073 | 41032 ft | 540 kts | 94° |
| 2026-05-07 05:59 | 42.25891 | 98.99177 | 41034 ft | 540 kts | 94° |
| 2026-05-07 05:59 | 42.25317 | 99.09305 | 41045 ft | 540 kts | 94° |
| 2026-05-07 06:00 | 42.24736 | 99.19408 | 41029 ft | 539 kts | 94° |
| 2026-05-07 06:00 | 42.24146 | 99.29503 | 41028 ft | 539 kts | 95° |
| 2026-05-07 06:01 | 42.23548 | 99.39585 | 41026 ft | 539 kts | 95° |
| 2026-05-07 06:01 | 42.22946 | 99.49595 | 41028 ft | 539 kts | 95° |
| 2026-05-07 06:02 | 42.22328 | 99.59703 | 41029 ft | 540 kts | 95° |
| 2026-05-07 06:02 | 42.21702 | 99.69804 | 41021 ft | 540 kts | 95° |
| 2026-05-07 06:03 | 42.21066 | 99.79914 | 41014 ft | 540 kts | 95° |
| 2026-05-07 06:03 | 42.20422 | 99.90017 | 41038 ft | 541 kts | 95° |
| 2026-05-07 06:04 | 42.19768 | 100.00129 | 41030 ft | 541 kts | 95° |
| 2026-05-07 06:04 | 42.19110 | 100.10179 | 41024 ft | 541 kts | 95° |
| 2026-05-07 06:05 | 42.18438 | 100.20295 | 41022 ft | 542 kts | 95° |
| 2026-05-07 06:05 | 42.17756 | 100.30419 | 41027 ft | 543 kts | 95° |
| 2026-05-07 06:06 | 42.17064 | 100.40560 | 41029 ft | 543 kts | 95° |
| 2026-05-07 06:06 | 42.16363 | 100.50714 | 41031 ft | 543 kts | 95° |
| 2026-05-07 06:07 | 42.15652 | 100.60862 | 41036 ft | 544 kts | 95° |
| 2026-05-07 06:07 | 42.14936 | 100.70956 | 41032 ft | 544 kts | 95° |
| 2026-05-07 06:08 | 42.14206 | 100.81124 | 41032 ft | 545 kts | 95° |
| 2026-05-07 06:08 | 42.13468 | 100.91284 | 41034 ft | 545 kts | 95° |
| 2026-05-07 06:09 | 42.12678 | 101.01446 | 41029 ft | 545 kts | 99° |
| 2026-05-07 06:09 | 42.10711 | 101.11273 | 41034 ft | 543 kts | 109° |
| 2026-05-07 06:10 | 42.08247 | 101.20880 | 41036 ft | 544 kts | 110° |
| 2026-05-07 06:10 | 42.05687 | 101.30483 | 41049 ft | 544 kts | 111° |
| 2026-05-07 06:11 | 42.03132 | 101.40079 | 41046 ft | 546 kts | 111° |
| 2026-05-07 06:11 | 42.00597 | 101.49632 | 41046 ft | 547 kts | 111° |
| 2026-05-07 06:12 | 41.98034 | 101.59277 | 41045 ft | 547 kts | 111° |
| 2026-05-07 06:12 | 41.95465 | 101.68913 | 41034 ft | 547 kts | 111° |
| 2026-05-07 06:13 | 41.92888 | 101.78538 | 41050 ft | 549 kts | 111° |
| 2026-05-07 06:13 | 41.90291 | 101.88197 | 41047 ft | 549 kts | 111° |
| 2026-05-07 06:14 | 41.87687 | 101.97841 | 41043 ft | 549 kts | 111° |
| 2026-05-07 06:14 | 41.85076 | 102.07476 | 41052 ft | 550 kts | 111° |
| 2026-05-07 06:15 | 41.82453 | 102.17116 | 41048 ft | 551 kts | 111° |
| 2026-05-07 06:15 | 41.79818 | 102.26764 | 41046 ft | 551 kts | 111° |
| 2026-05-07 06:16 | 41.77194 | 102.36335 | 41051 ft | 551 kts | 111° |
| 2026-05-07 06:16 | 41.74545 | 102.45961 | 41054 ft | 551 kts | 111° |
| 2026-05-07 06:17 | 41.71881 | 102.55600 | 41048 ft | 552 kts | 111° |
| 2026-05-07 06:17 | 41.69205 | 102.65251 | 41049 ft | 554 kts | 111° |
| 2026-05-07 06:18 | 41.66514 | 102.74930 | 41041 ft | 555 kts | 111° |
| 2026-05-07 06:18 | 41.63813 | 102.84601 | 41048 ft | 556 kts | 111° |
| 2026-05-07 06:19 | 41.61091 | 102.94298 | 41047 ft | 557 kts | 111° |
| 2026-05-07 06:19 | 41.58387 | 103.03915 | 41048 ft | 557 kts | 111° |
| 2026-05-07 06:20 | 41.55652 | 103.13586 | 41046 ft | 557 kts | 112° |
| 2026-05-07 06:20 | 41.52899 | 103.23272 | 41046 ft | 558 kts | 112° |
| 2026-05-07 06:21 | 41.50132 | 103.32976 | 41051 ft | 559 kts | 112° |
| 2026-05-07 06:21 | 41.47378 | 103.42606 | 41050 ft | 559 kts | 112° |
| 2026-05-07 06:22 | 41.44594 | 103.52302 | 41059 ft | 559 kts | 112° |
| 2026-05-07 06:22 | 41.40876 | 103.65198 | 41047 ft | 560 kts | 112° |
| 2026-05-07 06:23 | 41.38070 | 103.74885 | 41045 ft | 560 kts | 112° |
| 2026-05-07 06:23 | 41.35262 | 103.84548 | 41036 ft | 560 kts | 112° |
| 2026-05-07 06:24 | 41.32432 | 103.94243 | 41053 ft | 563 kts | 112° |
| 2026-05-07 06:24 | 41.29588 | 104.03953 | 41048 ft | 564 kts | 112° |
| 2026-05-07 06:25 | 41.26748 | 104.13613 | 41050 ft | 565 kts | 112° |
| 2026-05-07 06:25 | 41.23876 | 104.23349 | 41061 ft | 565 kts | 112° |
| 2026-05-07 06:26 | 41.20994 | 104.33076 | 41060 ft | 566 kts | 112° |
| 2026-05-07 06:26 | 41.18104 | 104.42798 | 41060 ft | 566 kts | 112° |
| 2026-05-07 06:27 | 41.15202 | 104.52525 | 41061 ft | 566 kts | 112° |
| 2026-05-07 06:27 | 41.12314 | 104.62169 | 41060 ft | 566 kts | 112° |
| 2026-05-07 06:28 | 41.09394 | 104.71875 | 41069 ft | 566 kts | 113° |
| 2026-05-07 06:28 | 41.06253 | 104.81442 | 41068 ft | 565 kts | 116° |
| 2026-05-07 06:29 | 41.02990 | 104.90861 | 41064 ft | 565 kts | 116° |
| 2026-05-07 06:29 | 40.99724 | 105.00343 | 41051 ft | 566 kts | 116° |
| 2026-05-07 06:30 | 40.96470 | 105.09878 | 41069 ft | 568 kts | 116° |
| 2026-05-07 06:30 | 40.93214 | 105.19433 | 41067 ft | 570 kts | 116° |
| 2026-05-07 06:31 | 40.89968 | 105.28924 | 41079 ft | 570 kts | 116° |
| 2026-05-07 06:31 | 40.86686 | 105.38482 | 41073 ft | 570 kts | 116° |
| 2026-05-07 06:32 | 40.83398 | 105.48020 | 41076 ft | 571 kts | 116° |
| 2026-05-07 06:32 | 40.80100 | 105.57554 | 41079 ft | 571 kts | 116° |
| 2026-05-07 06:33 | 40.76796 | 105.67075 | 41094 ft | 571 kts | 116° |
| 2026-05-07 06:33 | 40.73478 | 105.76606 | 41093 ft | 572 kts | 116° |
| 2026-05-07 06:34 | 40.70148 | 105.86136 | 41098 ft | 572 kts | 116° |
| 2026-05-07 06:34 | 40.66809 | 105.95663 | 41105 ft | 572 kts | 116° |
| 2026-05-07 06:35 | 40.63462 | 106.05180 | 41122 ft | 573 kts | 116° |
| 2026-05-07 06:35 | 40.60117 | 106.14657 | 41109 ft | 575 kts | 116° |
| 2026-05-07 06:36 | 40.56739 | 106.24200 | 41107 ft | 576 kts | 116° |
| 2026-05-07 06:36 | 40.53351 | 106.33740 | 41125 ft | 575 kts | 116° |
| 2026-05-07 06:37 | 40.49951 | 106.43279 | 41112 ft | 576 kts | 116° |
| 2026-05-07 06:37 | 40.46541 | 106.52813 | 41109 ft | 576 kts | 116° |
| 2026-05-07 06:38 | 40.43121 | 106.62347 | 41113 ft | 576 kts | 117° |
| 2026-05-07 06:38 | 40.39698 | 106.71853 | 41114 ft | 577 kts | 117° |
| 2026-05-07 06:39 | 40.36284 | 106.81306 | 41116 ft | 577 kts | 117° |
| 2026-05-07 06:39 | 40.32969 | 106.90888 | 41115 ft | 578 kts | 109° |
| 2026-05-07 06:40 | 40.31954 | 106.95973 | 41121 ft | 577 kts | 98° |
| 2026-05-07 06:40 | 40.31679 | 107.01184 | 41121 ft | 573 kts | 85° |
| 2026-05-07 06:40 | 40.32587 | 107.11509 | 41118 ft | 570 kts | 77° |
| 2026-05-07 06:41 | 40.33907 | 107.21768 | 41119 ft | 570 kts | 76° |
| 2026-05-07 06:41 | 40.35251 | 107.32022 | 41117 ft | 571 kts | 76° |
| 2026-05-07 06:42 | 40.36536 | 107.42287 | 41127 ft | 571 kts | 77° |
| 2026-05-07 06:42 | 40.37785 | 107.52586 | 41123 ft | 571 kts | 77° |
| 2026-05-07 06:43 | 40.39017 | 107.62870 | 41124 ft | 571 kts | 77° |
| 2026-05-07 06:43 | 40.40235 | 107.73092 | 41131 ft | 571 kts | 77° |
| 2026-05-07 06:44 | 40.41450 | 107.83367 | 41124 ft | 569 kts | 77° |
| 2026-05-07 06:44 | 40.42657 | 107.93630 | 41133 ft | 568 kts | 77° |
| 2026-05-07 06:45 | 40.43856 | 108.03877 | 41135 ft | 568 kts | 77° |
| 2026-05-07 06:45 | 40.45039 | 108.14142 | 41135 ft | 568 kts | 77° |
| 2026-05-07 06:46 | 40.46210 | 108.24407 | 41134 ft | 569 kts | 77° |
| 2026-05-07 06:46 | 40.47374 | 108.34677 | 41136 ft | 569 kts | 77° |
| 2026-05-07 06:47 | 40.48530 | 108.44947 | 41149 ft | 569 kts | 77° |
| 2026-05-07 06:47 | 40.49678 | 108.55235 | 41141 ft | 567 kts | 78° |
| 2026-05-07 06:48 | 40.50804 | 108.65412 | 41136 ft | 566 kts | 78° |
| 2026-05-07 06:48 | 40.51930 | 108.75659 | 41148 ft | 566 kts | 78° |
| 2026-05-07 06:49 | 40.53046 | 108.85909 | 41144 ft | 566 kts | 78° |
| 2026-05-07 06:49 | 40.54155 | 108.96176 | 41147 ft | 566 kts | 78° |
| 2026-05-07 06:50 | 40.55253 | 109.06434 | 41149 ft | 567 kts | 78° |
| 2026-05-07 06:50 | 40.56341 | 109.16693 | 41154 ft | 567 kts | 78° |
| 2026-05-07 06:51 | 40.57415 | 109.26903 | 41162 ft | 566 kts | 78° |
| 2026-05-07 06:51 | 40.58485 | 109.37162 | 41160 ft | 565 kts | 78° |
| 2026-05-07 06:52 | 40.59545 | 109.47422 | 41169 ft | 565 kts | 78° |
| 2026-05-07 06:52 | 40.60596 | 109.57671 | 41165 ft | 565 kts | 78° |
| 2026-05-07 06:53 | 40.61634 | 109.67894 | 41170 ft | 565 kts | 78° |
| 2026-05-07 06:53 | 40.62666 | 109.78148 | 41169 ft | 565 kts | 78° |
| 2026-05-07 06:54 | 40.63691 | 109.88429 | 41173 ft | 566 kts | 78° |
| 2026-05-07 06:54 | 40.64562 | 109.98739 | 41197 ft | 569 kts | 86° |
| 2026-05-07 06:55 | 40.64667 | 110.09148 | 41187 ft | 568 kts | 87° |
| 2026-05-07 06:55 | 40.64611 | 110.19560 | 41183 ft | 568 kts | 87° |
| 2026-05-07 06:56 | 40.64524 | 110.29904 | 41189 ft | 569 kts | 88° |
| 2026-05-07 06:56 | 40.64440 | 110.40333 | 41189 ft | 569 kts | 88° |
| 2026-05-07 06:57 | 40.64350 | 110.50774 | 41188 ft | 569 kts | 88° |
| 2026-05-07 06:57 | 40.64263 | 110.61126 | 41193 ft | 568 kts | 88° |
| 2026-05-07 06:58 | 40.64169 | 110.71532 | 41208 ft | 567 kts | 88° |
| 2026-05-07 06:58 | 40.64076 | 110.81921 | 41215 ft | 567 kts | 88° |
| 2026-05-07 06:59 | 40.63961 | 110.92311 | 41204 ft | 568 kts | 88° |
| 2026-05-07 06:59 | 40.63828 | 111.02720 | 41214 ft | 568 kts | 88° |
| 2026-05-07 07:00 | 40.63689 | 111.13109 | 41250 ft | 568 kts | 88° |
| 2026-05-07 07:00 | 40.63548 | 111.23498 | 41219 ft | 566 kts | 88° |
| 2026-05-07 07:01 | 40.63397 | 111.33803 | 41220 ft | 565 kts | 89° |
| 2026-05-07 07:01 | 40.63232 | 111.44156 | 41221 ft | 565 kts | 89° |
| 2026-05-07 07:02 | 40.63060 | 111.54509 | 41222 ft | 565 kts | 89° |
| 2026-05-07 07:02 | 40.62880 | 111.64861 | 41223 ft | 565 kts | 89° |
| 2026-05-07 07:03 | 40.62690 | 111.75214 | 41223 ft | 565 kts | 89° |
| 2026-05-07 07:03 | 40.62492 | 111.85573 | 41225 ft | 566 kts | 89° |
| 2026-05-07 07:04 | 40.62301 | 111.95872 | 41225 ft | 566 kts | 89° |
| 2026-05-07 07:04 | 40.62084 | 112.06247 | 41222 ft | 566 kts | 89° |
| 2026-05-07 07:05 | 40.61848 | 112.16614 | 41227 ft | 567 kts | 89° |
| 2026-05-07 07:05 | 40.61603 | 112.27004 | 41245 ft | 567 kts | 89° |
| 2026-05-07 07:06 | 40.61353 | 112.37372 | 41219 ft | 565 kts | 89° |
| 2026-05-07 07:06 | 40.61097 | 112.47646 | 41220 ft | 565 kts | 89° |
| 2026-05-07 07:07 | 40.60695 | 112.58011 | 41205 ft | 567 kts | 91° |
| 2026-05-07 07:07 | 40.60046 | 112.68374 | 41203 ft | 568 kts | 92° |
| 2026-05-07 07:08 | 40.59341 | 112.78681 | 41217 ft | 569 kts | 94° |
| 2026-05-07 07:08 | 40.58478 | 112.89033 | 41187 ft | 569 kts | 93° |
| 2026-05-07 07:09 | 40.57762 | 112.99393 | 41184 ft | 568 kts | 92° |
| 2026-05-07 07:09 | 40.57086 | 113.09755 | 41183 ft | 568 kts | 92° |
| 2026-05-07 07:10 | 40.56396 | 113.20118 | 41178 ft | 569 kts | 92° |
| 2026-05-07 07:10 | 40.55683 | 113.30493 | 41174 ft | 569 kts | 93° |
| 2026-05-07 07:11 | 40.54957 | 113.40869 | 41176 ft | 569 kts | 93° |
| 2026-05-07 07:11 | 40.54226 | 113.51179 | 41175 ft | 570 kts | 93° |
| 2026-05-07 07:12 | 40.53481 | 113.61560 | 41163 ft | 570 kts | 93° |
| 2026-05-07 07:12 | 40.52725 | 113.71942 | 41163 ft | 570 kts | 93° |
| 2026-05-07 07:13 | 40.51962 | 113.82304 | 41153 ft | 569 kts | 93° |
| 2026-05-07 07:13 | 40.51193 | 113.92658 | 41152 ft | 569 kts | 93° |
| 2026-05-07 07:14 | 40.50550 | 114.01260 | 41143 ft | 569 kts | 93° |
| 2026-05-07 07:14 | 40.50044 | 114.11636 | 41146 ft | 569 kts | 90° |
| 2026-05-07 07:15 | 40.49622 | 114.23736 | 41139 ft | 569 kts | 90° |
| 2026-05-07 07:15 | 40.49282 | 114.32444 | 41135 ft | 570 kts | 91° |
| 2026-05-07 07:16 | 40.48833 | 114.42767 | 41140 ft | 570 kts | 91° |
| 2026-05-07 07:16 | 40.48357 | 114.53179 | 41126 ft | 571 kts | 91° |
| 2026-05-07 07:17 | 40.47870 | 114.63617 | 41131 ft | 571 kts | 91° |
| 2026-05-07 07:17 | 40.47380 | 114.73957 | 41124 ft | 571 kts | 91° |
| 2026-05-07 07:18 | 40.46879 | 114.84369 | 41126 ft | 571 kts | 91° |
| 2026-05-07 07:18 | 40.46370 | 114.94768 | 41125 ft | 571 kts | 91° |
| 2026-05-07 07:19 | 40.45852 | 115.05167 | 41124 ft | 571 kts | 92° |
| 2026-05-07 07:19 | 40.45322 | 115.15598 | 41108 ft | 572 kts | 92° |
| 2026-05-07 07:20 | 40.44782 | 115.26010 | 41116 ft | 572 kts | 92° |
| 2026-05-07 07:20 | 40.44233 | 115.36437 | 41107 ft | 572 kts | 92° |
| 2026-05-07 07:21 | 40.43679 | 115.46799 | 41105 ft | 573 kts | 92° |
| 2026-05-07 07:21 | 40.43091 | 115.57251 | 41097 ft | 573 kts | 94° |
| 2026-05-07 07:22 | 40.42263 | 115.67670 | 41095 ft | 574 kts | 95° |
| 2026-05-07 07:22 | 40.41352 | 115.78087 | 41092 ft | 574 kts | 95° |
| 2026-05-07 07:23 | 40.40464 | 115.88498 | 41092 ft | 574 kts | 95° |
| 2026-05-07 07:23 | 40.39594 | 115.98931 | 41111 ft | 574 kts | 95° |
| 2026-05-07 07:24 | 40.38724 | 116.09320 | 41090 ft | 572 kts | 95° |
| 2026-05-07 07:24 | 40.37846 | 116.19672 | 41090 ft | 571 kts | 95° |
| 2026-05-07 07:25 | 40.36515 | 116.35179 | 41088 ft | 570 kts | 96° |
| 2026-05-07 07:26 | 40.35615 | 116.45500 | 41077 ft | 570 kts | 96° |
| 2026-05-07 07:26 | 40.34710 | 116.55766 | 41085 ft | 570 kts | 96° |
| 2026-05-07 07:27 | 40.32970 | 116.65863 | 41086 ft | 569 kts | 114° |
| 2026-05-07 07:27 | 40.31175 | 116.70469 | 41079 ft | 565 kts | 126° |
| 2026-05-07 07:27 | 40.28782 | 116.74488 | 41086 ft | 558 kts | 138° |
| 2026-05-07 07:27 | 40.25865 | 116.77799 | 41080 ft | 550 kts | 150° |
| 2026-05-07 07:28 | 40.22583 | 116.80268 | 41079 ft | 539 kts | 162° |
| 2026-05-07 07:28 | 40.19074 | 116.81861 | 41054 ft | 529 kts | 173° |
| 2026-05-07 07:28 | 40.15486 | 116.82575 | 41073 ft | 516 kts | 184° |
| 2026-05-07 07:28 | 40.11948 | 116.82457 | 41079 ft | 504 kts | 194° |
| 2026-05-07 07:29 | 40.08506 | 116.81706 | 41074 ft | 502 kts | 195° |
| 2026-05-07 07:29 | 40.01479 | 116.81376 | 41092 ft | 518 kts | 182° |
| 2026-05-07 07:30 | 39.94273 | 116.82493 | 41095 ft | 523 kts | 179° |
| 2026-05-07 07:30 | 39.87071 | 116.83945 | 41094 ft | 524 kts | 178° |
| 2026-05-07 07:31 | 39.79870 | 116.85434 | 41091 ft | 524 kts | 178° |
| 2026-05-07 07:31 | 39.72677 | 116.86934 | 41095 ft | 523 kts | 179° |
| 2026-05-07 07:32 | 39.65517 | 116.88429 | 41099 ft | 523 kts | 179° |
| 2026-05-07 07:32 | 39.58328 | 116.89919 | 41097 ft | 523 kts | 179° |
| 2026-05-07 07:33 | 39.51130 | 116.91403 | 41097 ft | 524 kts | 179° |
| 2026-05-07 07:33 | 39.43923 | 116.92883 | 41097 ft | 524 kts | 179° |
| 2026-05-07 07:34 | 39.36703 | 116.94365 | 41095 ft | 525 kts | 179° |
| 2026-05-07 07:34 | 39.29491 | 116.95844 | 41096 ft | 524 kts | 179° |
| 2026-05-07 07:35 | 39.22346 | 116.97667 | 41098 ft | 535 kts | 170° |
| 2026-05-07 07:35 | 39.18839 | 116.99465 | 41097 ft | 547 kts | 160° |
| 2026-05-07 07:35 | 39.15572 | 117.02046 | 41100 ft | 558 kts | 149° |
| 2026-05-07 07:35 | 39.12662 | 117.05433 | 41100 ft | 568 kts | 137° |
| 2026-05-07 07:36 | 39.10271 | 117.09533 | 41088 ft | 577 kts | 124° |
| 2026-05-07 07:36 | 39.08510 | 117.14201 | 41096 ft | 583 kts | 111° |
| 2026-05-07 07:36 | 39.07479 | 117.19192 | 41102 ft | 586 kts | 99° |
| 2026-05-07 07:36 | 39.07196 | 117.24425 | 41105 ft | 586 kts | 87° |
| 2026-05-07 07:37 | 39.07331 | 117.29667 | 41112 ft | 587 kts | 85° |
| 2026-05-07 07:37 | 39.07863 | 117.40156 | 41101 ft | 587 kts | 85° |
| 2026-05-07 07:38 | 39.07942 | 117.50659 | 41100 ft | 587 kts | 91° |
| 2026-05-07 07:38 | 39.07705 | 117.61175 | 41091 ft | 588 kts | 91° |
| 2026-05-07 07:39 | 39.07488 | 117.71706 | 41078 ft | 588 kts | 91° |
| 2026-05-07 07:39 | 39.07330 | 117.82167 | 41072 ft | 588 kts | 90° |
| 2026-05-07 07:40 | 39.07188 | 117.92702 | 41065 ft | 588 kts | 90° |
| 2026-05-07 07:40 | 39.06875 | 118.03220 | 41067 ft | 588 kts | 98° |
| 2026-05-07 07:41 | 39.05478 | 118.13594 | 41081 ft | 588 kts | 102° |
| 2026-05-07 07:41 | 39.03848 | 118.23907 | 41061 ft | 587 kts | 103° |
| 2026-05-07 07:42 | 39.02178 | 118.34139 | 41059 ft | 587 kts | 103° |
| 2026-05-07 07:42 | 39.00508 | 118.44432 | 41059 ft | 588 kts | 103° |
| 2026-05-07 07:43 | 38.98847 | 118.54736 | 41060 ft | 588 kts | 103° |
| 2026-05-07 07:43 | 38.97179 | 118.65026 | 41058 ft | 588 kts | 103° |
| 2026-05-07 07:44 | 38.95493 | 118.75327 | 41055 ft | 589 kts | 103° |
| 2026-05-07 07:44 | 38.93798 | 118.85629 | 41056 ft | 589 kts | 103° |
| 2026-05-07 07:45 | 38.92106 | 118.95864 | 41039 ft | 589 kts | 103° |
| 2026-05-07 07:45 | 38.90397 | 119.06162 | 41053 ft | 590 kts | 103° |
| 2026-05-07 07:46 | 38.88672 | 119.16479 | 41056 ft | 591 kts | 104° |
| 2026-05-07 07:46 | 38.86930 | 119.26799 | 41045 ft | 591 kts | 104° |
| 2026-05-07 07:47 | 38.85181 | 119.37115 | 41060 ft | 592 kts | 104° |
| 2026-05-07 07:47 | 38.83421 | 119.47446 | 41058 ft | 592 kts | 104° |
| 2026-05-07 07:48 | 38.81667 | 119.57688 | 41061 ft | 592 kts | 104° |
| 2026-05-07 07:48 | 38.79891 | 119.68005 | 41056 ft | 592 kts | 104° |
| 2026-05-07 07:49 | 38.78105 | 119.78313 | 41055 ft | 592 kts | 104° |
| 2026-05-07 07:49 | 38.76333 | 119.88617 | 41053 ft | 592 kts | 104° |
| 2026-05-07 07:50 | 38.74642 | 119.98890 | 41054 ft | 593 kts | 104° |
| 2026-05-07 07:50 | 38.72819 | 120.09181 | 41054 ft | 589 kts | 112° |
| 2026-05-07 07:50 | 38.71173 | 120.13932 | 41052 ft | 579 kts | 126° |
| 2026-05-07 07:51 | 38.68798 | 120.18003 | 41037 ft | 563 kts | 141° |
| 2026-05-07 07:51 | 38.65847 | 120.21167 | 41051 ft | 545 kts | 156° |
| 2026-05-07 07:51 | 38.62557 | 120.23460 | 41051 ft | 539 kts | 161° |
| 2026-05-07 07:51 | 38.59458 | 120.26305 | 41057 ft | 559 kts | 144° |
| 2026-05-07 07:52 | 38.56883 | 120.30116 | 41056 ft | 575 kts | 129° |
| 2026-05-07 07:52 | 38.55001 | 120.34683 | 41058 ft | 586 kts | 114° |
| 2026-05-07 07:52 | 38.53919 | 120.39722 | 41063 ft | 593 kts | 100° |
| 2026-05-07 07:52 | 38.53721 | 120.44983 | 41057 ft | 595 kts | 85° |
| 2026-05-07 07:53 | 38.54298 | 120.50203 | 41056 ft | 595 kts | 77° |
| 2026-05-07 07:53 | 38.54753 | 120.60754 | 41054 ft | 597 kts | 95° |
| 2026-05-07 07:54 | 38.53691 | 120.71194 | 41047 ft | 596 kts | 103° |
| 2026-05-07 07:54 | 38.51985 | 120.81615 | 41059 ft | 595 kts | 105° |
| 2026-05-07 07:55 | 38.50180 | 120.91904 | 41047 ft | 593 kts | 105° |
| 2026-05-07 07:55 | 38.48440 | 121.02127 | 41042 ft | 593 kts | 104° |
| 2026-05-07 07:56 | 38.46726 | 121.12427 | 41034 ft | 593 kts | 104° |
| 2026-05-07 07:56 | 38.45030 | 121.22758 | 41028 ft | 594 kts | 104° |
| 2026-05-07 07:57 | 38.43368 | 121.33073 | 41025 ft | 594 kts | 104° |
| 2026-05-07 07:57 | 38.41703 | 121.43416 | 41019 ft | 594 kts | 104° |
| 2026-05-07 07:58 | 38.40021 | 121.53743 | 40993 ft | 594 kts | 105° |
| 2026-05-07 07:58 | 38.38308 | 121.63976 | 41010 ft | 594 kts | 105° |
| 2026-05-07 07:59 | 38.36569 | 121.74277 | 41007 ft | 594 kts | 105° |
| 2026-05-07 07:59 | 38.34827 | 121.84577 | 40994 ft | 594 kts | 105° |
| 2026-05-07 08:00 | 38.33078 | 121.94889 | 41000 ft | 594 kts | 105° |
| 2026-05-07 08:00 | 38.31336 | 122.05099 | 40996 ft | 594 kts | 105° |
| 2026-05-07 08:01 | 38.29573 | 122.15379 | 40991 ft | 593 kts | 105° |
| 2026-05-07 08:01 | 38.27804 | 122.25632 | 40988 ft | 593 kts | 106° |
| 2026-05-07 08:02 | 38.26212 | 122.35950 | 40965 ft | 593 kts | 103° |
| 2026-05-07 08:02 | 38.25171 | 122.40995 | 40976 ft | 587 kts | 114° |
| 2026-05-07 08:02 | 38.23540 | 122.45687 | 40979 ft | 576 kts | 126° |
| 2026-05-07 08:03 | 38.19619 | 122.52335 | 40960 ft | 559 kts | 140° |
| 2026-05-07 08:03 | 38.14254 | 122.59446 | 40977 ft | 556 kts | 143° |
| 2026-05-07 08:04 | 38.08760 | 122.66369 | 40972 ft | 556 kts | 143° |
| 2026-05-07 08:04 | 38.03315 | 122.73336 | 40978 ft | 556 kts | 143° |
| 2026-05-07 08:05 | 37.97906 | 122.80338 | 40974 ft | 556 kts | 142° |
| 2026-05-07 08:05 | 37.92497 | 122.87349 | 40962 ft | 555 kts | 143° |
| 2026-05-07 08:06 | 37.87132 | 122.94283 | 40951 ft | 554 kts | 143° |
| 2026-05-07 08:06 | 37.81737 | 123.01239 | 40966 ft | 552 kts | 143° |
| 2026-05-07 08:07 | 37.76353 | 123.08159 | 40967 ft | 551 kts | 143° |
| 2026-05-07 08:07 | 37.70964 | 123.15068 | 40962 ft | 551 kts | 143° |
| 2026-05-07 08:08 | 37.65577 | 123.21962 | 40962 ft | 549 kts | 143° |
| 2026-05-07 08:08 | 37.60247 | 123.28771 | 40961 ft | 548 kts | 143° |
| 2026-05-07 08:09 | 37.55130 | 123.35980 | 40961 ft | 557 kts | 136° |
| 2026-05-07 08:09 | 37.50409 | 123.43736 | 40960 ft | 558 kts | 135° |
| 2026-05-07 08:10 | 37.45758 | 123.51580 | 40955 ft | 558 kts | 134° |
| 2026-05-07 08:10 | 37.41139 | 123.59357 | 40952 ft | 558 kts | 135° |
| 2026-05-07 08:11 | 37.36471 | 123.67161 | 40959 ft | 557 kts | 135° |
| 2026-05-07 08:11 | 37.31799 | 123.74939 | 40954 ft | 556 kts | 135° |
| 2026-05-07 08:12 | 37.27135 | 123.82682 | 40951 ft | 556 kts | 135° |
| 2026-05-07 08:12 | 37.22466 | 123.90416 | 40951 ft | 556 kts | 135° |
| 2026-05-07 08:13 | 37.18453 | 123.98753 | 40939 ft | 573 kts | 117° |
| 2026-05-07 08:13 | 37.17328 | 124.03574 | 40952 ft | 582 kts | 104° |
| 2026-05-07 08:13 | 37.16984 | 124.08648 | 40959 ft | 587 kts | 92° |
| 2026-05-07 08:14 | 37.17204 | 124.18900 | 40945 ft | 590 kts | 89° |
| 2026-05-07 08:14 | 37.17671 | 124.29176 | 40942 ft | 590 kts | 89° |
| 2026-05-07 08:15 | 37.18004 | 124.39455 | 40942 ft | 589 kts | 90° |
| 2026-05-07 08:15 | 37.18131 | 124.44566 | 40715 ft | 582 kts | 90° |
| 2026-05-07 08:15 | 37.18246 | 124.49639 | 40044 ft | 582 kts | 91° |
| 2026-05-07 08:15 | 37.18352 | 124.54718 | 39273 ft | 583 kts | 91° |
| 2026-05-07 08:16 | 37.18456 | 124.59770 | 38260 ft | 577 kts | 92° |
| 2026-05-07 08:16 | 37.18560 | 124.64787 | 37043 ft | 574 kts | 92° |
| 2026-05-07 08:16 | 37.18664 | 124.69712 | 36039 ft | 568 kts | 92° |
| 2026-05-07 08:16 | 37.18768 | 124.74643 | 35123 ft | 560 kts | 92° |
| 2026-05-07 08:17 | 37.18871 | 124.79457 | 34634 ft | 544 kts | 92° |
| 2026-05-07 08:17 | 37.18972 | 124.84135 | 34178 ft | 528 kts | 92° |
| 2026-05-07 08:17 | 37.19066 | 124.88694 | 33408 ft | 520 kts | 92° |
| 2026-05-07 08:17 | 37.19150 | 124.93223 | 32534 ft | 514 kts | 92° |
| 2026-05-07 08:18 | 37.19232 | 124.97692 | 31724 ft | 509 kts | 92° |
| 2026-05-07 08:18 | 37.19313 | 125.02102 | 30907 ft | 503 kts | 92° |
| 2026-05-07 08:18 | 37.19392 | 125.06467 | 30149 ft | 498 kts | 92° |
| 2026-05-07 08:18 | 37.19470 | 125.10798 | 29297 ft | 494 kts | 92° |
| 2026-05-07 08:19 | 37.19545 | 125.15081 | 28420 ft | 489 kts | 92° |
| 2026-05-07 08:19 | 37.19618 | 125.19280 | 27581 ft | 484 kts | 92° |
| 2026-05-07 08:19 | 37.19690 | 125.23478 | 26760 ft | 479 kts | 92° |
| 2026-05-07 08:19 | 37.19759 | 125.27638 | 25929 ft | 474 kts | 92° |
| 2026-05-07 08:20 | 37.19827 | 125.31740 | 25144 ft | 468 kts | 92° |
| 2026-05-07 08:20 | 37.19892 | 125.35795 | 24390 ft | 462 kts | 92° |
| 2026-05-07 08:20 | 37.19955 | 125.39809 | 23652 ft | 456 kts | 92° |
| 2026-05-07 08:20 | 37.20015 | 125.43758 | 22808 ft | 450 kts | 92° |
| 2026-05-07 08:21 | 37.20204 | 125.47643 | 21941 ft | 445 kts | 81° |
| 2026-05-07 08:21 | 37.21199 | 125.51270 | 21108 ft | 436 kts | 59° |
| 2026-05-07 08:21 | 37.22752 | 125.54489 | 20320 ft | 428 kts | 54° |
| 2026-05-07 08:21 | 37.24357 | 125.57611 | 19526 ft | 422 kts | 54° |
| 2026-05-07 08:22 | 37.25924 | 125.60700 | 18758 ft | 417 kts | 55° |
| 2026-05-07 08:22 | 37.27435 | 125.63722 | 17988 ft | 411 kts | 55° |
| 2026-05-07 08:22 | 37.28935 | 125.66751 | 17126 ft | 405 kts | 56° |
| 2026-05-07 08:22 | 37.30403 | 125.69735 | 16283 ft | 398 kts | 56° |
| 2026-05-07 08:23 | 37.31840 | 125.72683 | 15460 ft | 392 kts | 57° |
| 2026-05-07 08:23 | 37.32867 | 125.75811 | 14653 ft | 386 kts | 79° |
| 2026-05-07 08:23 | 37.32936 | 125.79116 | 13874 ft | 375 kts | 101° |
| 2026-05-07 08:23 | 37.32506 | 125.82309 | 13044 ft | 368 kts | 103° |
| 2026-05-07 08:24 | 37.32036 | 125.85444 | 12213 ft | 362 kts | 103° |
| 2026-05-07 08:24 | 37.31594 | 125.88535 | 11372 ft | 356 kts | 101° |
| 2026-05-07 08:24 | 37.31525 | 125.91618 | 10584 ft | 352 kts | 83° |
| 2026-05-07 08:24 | 37.32234 | 125.94481 | 10037 ft | 335 kts | 58° |
| 2026-05-07 08:25 | 37.33517 | 125.96830 | 9632 ft | 319 kts | 49° |
| 2026-05-07 08:25 | 37.34885 | 125.99013 | 9209 ft | 316 kts | 48° |
| 2026-05-07 08:25 | 37.36251 | 126.01144 | 8824 ft | 312 kts | 47° |
| 2026-05-07 08:25 | 37.37610 | 126.03251 | 8449 ft | 307 kts | 47° |
| 2026-05-07 08:26 | 37.40268 | 126.07352 | 7758 ft | 298 kts | 47° |
| 2026-05-07 08:26 | 37.41531 | 126.09298 | 7432 ft | 294 kts | 47° |
| 2026-05-07 08:26 | 37.42343 | 126.10549 | 7204 ft | 288 kts | 47° |
| 2026-05-07 08:27 | 37.43502 | 126.12341 | 6893 ft | 272 kts | 47° |
| 2026-05-07 08:27 | 37.44665 | 126.14140 | 6556 ft | 258 kts | 47° |
| 2026-05-07 08:27 | 37.45782 | 126.15862 | 6290 ft | 252 kts | 47° |
| 2026-05-07 08:27 | 37.46885 | 126.17560 | 5994 ft | 248 kts | 47° |
| 2026-05-07 08:28 | 37.47972 | 126.19236 | 5691 ft | 245 kts | 46° |
| 2026-05-07 08:28 | 37.49044 | 126.20891 | 5372 ft | 243 kts | 46° |
| 2026-05-07 08:28 | 37.50105 | 126.22529 | 5091 ft | 239 kts | 46° |
| 2026-05-07 08:28 | 37.51162 | 126.24054 | 4969 ft | 230 kts | 38° |
| 2026-05-07 08:29 | 37.52499 | 126.25056 | 4871 ft | 222 kts | 15° |
| 2026-05-07 08:29 | 37.53964 | 126.25647 | 4742 ft | 221 kts | 12° |
| 2026-05-07 08:29 | 37.55446 | 126.26180 | 4607 ft | 221 kts | 12° |
| 2026-05-07 08:29 | 37.56922 | 126.26712 | 4421 ft | 220 kts | 12° |
| 2026-05-07 08:30 | 37.58393 | 126.27249 | 4071 ft | 220 kts | 12° |
| 2026-05-07 08:30 | 37.59851 | 126.27787 | 3831 ft | 217 kts | 12° |
| 2026-05-07 08:30 | 37.61298 | 126.28325 | 3611 ft | 216 kts | 12° |
| 2026-05-07 08:30 | 37.62680 | 126.29088 | 3416 ft | 220 kts | 30° |
| 2026-05-07 08:31 | 37.63651 | 126.30594 | 3265 ft | 228 kts | 64° |
| 2026-05-07 08:31 | 37.63829 | 126.32565 | 3258 ft | 225 kts | 98° |
| 2026-05-07 08:31 | 37.63171 | 126.34239 | 3277 ft | 206 kts | 135° |
| 2026-05-07 08:31 | 37.62091 | 126.35207 | 3331 ft | 183 kts | 154° |
| 2026-05-07 08:32 | 37.60982 | 126.35796 | 3331 ft | 167 kts | 172° |
| 2026-05-07 08:32 | 37.59846 | 126.36015 | 3125 ft | 164 kts | 178° |
| 2026-05-07 08:32 | 37.58705 | 126.36135 | 2809 ft | 167 kts | 180° |
| 2026-05-07 08:32 | 37.57529 | 126.36215 | 2429 ft | 171 kts | 184° |
| 2026-05-07 08:33 | 37.56335 | 126.36162 | 2045 ft | 171 kts | 187° |
| 2026-05-07 08:33 | 37.55159 | 126.36071 | 1745 ft | 165 kts | 188° |
| 2026-05-07 08:33 | 37.54057 | 126.35994 | 1594 ft | 156 kts | 185° |
| 2026-05-07 08:33 | 37.52993 | 126.36308 | 1459 ft | 160 kts | 156° |
| 2026-05-07 08:34 | 37.52100 | 126.37148 | 1264 ft | 160 kts | 139° |
| 2026-05-07 08:34 | 37.51263 | 126.38035 | 1044 ft | 156 kts | 145° |
| 2026-05-07 08:34 | 37.50376 | 126.38788 | 839 ft | 151 kts | 153° |
| 2026-05-07 08:34 | 37.49500 | 126.39508 | 660 ft | 148 kts | 147° |
| 2026-05-07 08:35 | 37.48702 | 126.40292 | 436 ft | 145 kts | 146° |
| 2026-05-07 08:35 | 37.47878 | 126.41036 | 251 ft | 150 kts | 148° |
| 2026-05-07 08:35 | 37.47028 | 126.41791 | 69 ft | 145 kts | 149° |
| 2026-05-07 08:35 | 37.46266 | 126.42451 | 38 ft | 113 kts | 144° |
| 2026-05-07 08:36 | 37.45759 | 126.42914 | 39 ft | 67 kts | 144° |
| 2026-05-07 08:36 | 37.45469 | 126.43170 | 39 ft | 45 kts | 145° |
| 2026-05-07 08:36 | 37.45292 | 126.43371 | 38 ft | 29 kts | 126° |
| 2026-05-07 08:36 | 37.45235 | 126.43495 | 39 ft | 0 kts | 116° |
| 2026-05-07 08:37 | 37.45230 | 126.43519 | 39 ft | 6 kts | 100° |
| 2026-05-07 08:37 | 37.45257 | 126.43594 | 39 ft | 13 kts | 46° |
| 2026-05-07 08:37 | 37.45334 | 126.43700 | 39 ft | 20 kts | 54° |
| 2026-05-07 08:38 | 37.45423 | 126.43859 | 39 ft | 24 kts | 54° |
| 2026-05-07 08:38 | 37.45500 | 126.43995 | 36 ft | 17 kts | 54° |
| 2026-05-07 08:38 | 37.45557 | 126.44094 | 39 ft | 12 kts | 54° |
| 2026-05-07 08:38 | 37.45601 | 126.44173 | 39 ft | 1 kts | 54° |
| 2026-05-07 08:39 | 37.45610 | 126.44187 | 39 ft | 6 kts | 54° |
| 2026-05-07 08:39 | 37.45644 | 126.44249 | 39 ft | 10 kts | 58° |
| 2026-05-07 08:40 | 37.45629 | 126.44317 | 39 ft | 4 kts | 136° |
| 2026-05-07 08:40 | 37.45600 | 126.44343 | 38 ft | 2 kts | 146° |
| 2026-05-07 08:40 | 37.45595 | 126.44347 | 39 ft | 0 kts | 146° |
| 2026-05-07 08:40 | 37.45593 | 126.44348 | 39 ft | 0 kts | 146° |